sensor_id;sensor_type;location;lat;lon;timestamp;temperature;humidity
12833;DHT22;6483;51.310;4.462;2022-08-19T00:01:58;16.20;99.90
12833;DHT22;6483;51.310;4.462;2022-08-19T00:04:29;16.20;99.90
12833;DHT22;6483;51.310;4.462;2022-08-19T00:06:55;16.10;99.90
12833;DHT22;6483;51.310;4.462;2022-08-19T00:09:22;16.10;99.90
12833;DHT22;6483;51.310;4.462;2022-08-19T00:11:48;16.00;99.90
12833;DHT22;6483;51.310;4.462;2022-08-19T00:14:17;16.00;99.90
12833;DHT22;6483;51.310;4.462;2022-08-19T00:16:44;16.00;99.90
12833;DHT22;6483;51.310;4.462;2022-08-19T00:19:10;16.00;99.90
12833;DHT22;6483;51.310;4.462;2022-08-19T00:21:36;16.10;99.90
12833;DHT22;6483;51.310;4.462;2022-08-19T00:24:06;16.10;99.90
12833;DHT22;6483;51.310;4.462;2022-08-19T00:26:36;16.20;99.90
12833;DHT22;6483;51.310;4.462;2022-08-19T00:29:07;16.20;99.90
12833;DHT22;6483;51.310;4.462;2022-08-19T00:31:33;16.00;99.90
12833;DHT22;6483;51.310;4.462;2022-08-19T00:34:02;16.00;99.90
12833;DHT22;6483;51.310;4.462;2022-08-19T00:36:31;16.00;99.90
12833;DHT22;6483;51.310;4.462;2022-08-19T00:38:58;15.90;99.90
12833;DHT22;6483;51.310;4.462;2022-08-19T00:41:30;15.90;99.90
12833;DHT22;6483;51.310;4.462;2022-08-19T00:44:24;15.90;99.90
12833;DHT22;6483;51.310;4.462;2022-08-19T00:46:52;15.90;99.90
12833;DHT22;6483;51.310;4.462;2022-08-19T00:49:47;15.90;99.90
12833;DHT22;6483;51.310;4.462;2022-08-19T00:52:24;15.90;99.90
12833;DHT22;6483;51.310;4.462;2022-08-19T00:54:52;15.90;99.90
12833;DHT22;6483;51.310;4.462;2022-08-19T00:57:24;15.90;99.90
12833;DHT22;6483;51.310;4.462;2022-08-19T00:59:52;15.90;99.90
12833;DHT22;6483;51.310;4.462;2022-08-19T01:02:19;15.90;99.90
12833;DHT22;6483;51.310;4.462;2022-08-19T01:04:45;15.90;99.90
12833;DHT22;6483;51.310;4.462;2022-08-19T01:07:14;15.80;99.90
12833;DHT22;6483;51.310;4.462;2022-08-19T01:09:40;15.90;99.90
12833;DHT22;6483;51.310;4.462;2022-08-19T01:12:08;16.00;99.90
12833;DHT22;6483;51.310;4.462;2022-08-19T01:14:35;16.00;99.90
12833;DHT22;6483;51.310;4.462;2022-08-19T01:17:02;16.10;99.90
12833;DHT22;6483;51.310;4.462;2022-08-19T01:19:37;16.00;99.90
12833;DHT22;6483;51.310;4.462;2022-08-19T01:22:19;15.90;99.90
12833;DHT22;6483;51.310;4.462;2022-08-19T01:24:47;15.90;99.90
12833;DHT22;6483;51.310;4.462;2022-08-19T01:27:13;15.90;99.90
12833;DHT22;6483;51.310;4.462;2022-08-19T01:29:41;15.90;99.90
12833;DHT22;6483;51.310;4.462;2022-08-19T01:32:10;15.90;99.90
12833;DHT22;6483;51.310;4.462;2022-08-19T01:34:37;15.90;99.90
12833;DHT22;6483;51.310;4.462;2022-08-19T01:37:11;15.90;99.90
12833;DHT22;6483;51.310;4.462;2022-08-19T01:39:38;15.90;99.90
12833;DHT22;6483;51.310;4.462;2022-08-19T01:42:05;16.00;99.90
12833;DHT22;6483;51.310;4.462;2022-08-19T01:44:35;16.10;99.90
12833;DHT22;6483;51.310;4.462;2022-08-19T01:47:02;16.10;99.90
12833;DHT22;6483;51.310;4.462;2022-08-19T01:49:29;16.10;99.90
12833;DHT22;6483;51.310;4.462;2022-08-19T01:51:59;16.00;99.90
12833;DHT22;6483;51.310;4.462;2022-08-19T01:54:24;16.00;99.90
12833;DHT22;6483;51.310;4.462;2022-08-19T01:57:13;16.00;99.90
12833;DHT22;6483;51.310;4.462;2022-08-19T01:59:41;16.00;99.90
12833;DHT22;6483;51.310;4.462;2022-08-19T02:02:08;16.00;99.90
12833;DHT22;6483;51.310;4.462;2022-08-19T02:04:35;16.00;99.90
12833;DHT22;6483;51.310;4.462;2022-08-19T02:07:06;16.00;99.90
12833;DHT22;6483;51.310;4.462;2022-08-19T02:09:36;15.90;99.90
12833;DHT22;6483;51.310;4.462;2022-08-19T02:12:04;15.90;99.90
12833;DHT22;6483;51.310;4.462;2022-08-19T02:14:30;16.00;99.90
12833;DHT22;6483;51.310;4.462;2022-08-19T02:16:55;16.10;99.90
12833;DHT22;6483;51.310;4.462;2022-08-19T02:19:24;16.00;99.90
12833;DHT22;6483;51.310;4.462;2022-08-19T02:21:50;16.10;99.90
12833;DHT22;6483;51.310;4.462;2022-08-19T02:24:15;16.20;99.90
12833;DHT22;6483;51.310;4.462;2022-08-19T02:26:41;16.30;99.90
12833;DHT22;6483;51.310;4.462;2022-08-19T02:29:07;16.30;99.90
12833;DHT22;6483;51.310;4.462;2022-08-19T02:31:33;16.30;99.90
12833;DHT22;6483;51.310;4.462;2022-08-19T02:33:58;16.30;99.90
12833;DHT22;6483;51.310;4.462;2022-08-19T02:36:27;16.20;99.90
12833;DHT22;6483;51.310;4.462;2022-08-19T02:38:54;16.10;99.90
12833;DHT22;6483;51.310;4.462;2022-08-19T02:41:22;16.20;99.90
12833;DHT22;6483;51.310;4.462;2022-08-19T02:43:49;16.20;99.90
12833;DHT22;6483;51.310;4.462;2022-08-19T02:46:26;16.10;99.90
12833;DHT22;6483;51.310;4.462;2022-08-19T02:48:55;16.00;99.90
12833;DHT22;6483;51.310;4.462;2022-08-19T02:51:31;16.00;99.90
12833;DHT22;6483;51.310;4.462;2022-08-19T02:53:58;16.00;99.90
12833;DHT22;6483;51.310;4.462;2022-08-19T02:56:33;15.90;99.90
12833;DHT22;6483;51.310;4.462;2022-08-19T02:58:59;15.90;99.90
12833;DHT22;6483;51.310;4.462;2022-08-19T03:01:32;16.00;99.90
12833;DHT22;6483;51.310;4.462;2022-08-19T03:03:59;16.00;99.90
12833;DHT22;6483;51.310;4.462;2022-08-19T03:06:26;15.90;99.90
12833;DHT22;6483;51.310;4.462;2022-08-19T03:08:53;16.00;99.90
12833;DHT22;6483;51.310;4.462;2022-08-19T03:11:22;15.90;99.90
12833;DHT22;6483;51.310;4.462;2022-08-19T03:13:52;15.90;99.90
12833;DHT22;6483;51.310;4.462;2022-08-19T03:16:23;15.80;99.90
12833;DHT22;6483;51.310;4.462;2022-08-19T03:18:50;15.80;99.90
12833;DHT22;6483;51.310;4.462;2022-08-19T03:21:22;15.70;99.90
12833;DHT22;6483;51.310;4.462;2022-08-19T03:23:57;15.60;99.90
12833;DHT22;6483;51.310;4.462;2022-08-19T03:26:32;15.60;99.90
12833;DHT22;6483;51.310;4.462;2022-08-19T03:29:02;15.60;99.90
12833;DHT22;6483;51.310;4.462;2022-08-19T03:31:31;15.60;99.90
12833;DHT22;6483;51.310;4.462;2022-08-19T03:33:57;15.70;99.90
12833;DHT22;6483;51.310;4.462;2022-08-19T03:36:25;15.70;99.90
12833;DHT22;6483;51.310;4.462;2022-08-19T03:38:59;15.90;99.90
12833;DHT22;6483;51.310;4.462;2022-08-19T03:41:28;15.90;99.90
12833;DHT22;6483;51.310;4.462;2022-08-19T03:43:54;15.90;99.90
12833;DHT22;6483;51.310;4.462;2022-08-19T03:46:27;15.80;99.90
12833;DHT22;6483;51.310;4.462;2022-08-19T03:48:58;15.80;99.90
12833;DHT22;6483;51.310;4.462;2022-08-19T03:51:33;16.00;99.90
12833;DHT22;6483;51.310;4.462;2022-08-19T03:54:04;16.10;99.90
12833;DHT22;6483;51.310;4.462;2022-08-19T03:56:30;16.00;99.90
12833;DHT22;6483;51.310;4.462;2022-08-19T03:58:57;16.20;99.90
12833;DHT22;6483;51.310;4.462;2022-08-19T04:01:25;16.20;99.90
12833;DHT22;6483;51.310;4.462;2022-08-19T04:03:52;16.30;99.90
12833;DHT22;6483;51.310;4.462;2022-08-19T04:08:49;16.40;99.90
12833;DHT22;6483;51.310;4.462;2022-08-19T04:11:19;16.50;99.90
12833;DHT22;6483;51.310;4.462;2022-08-19T04:13:50;15.60;99.90
12833;DHT22;6483;51.310;4.462;2022-08-19T04:16:21;16.70;99.90
12833;DHT22;6483;51.310;4.462;2022-08-19T04:18:48;16.60;99.90
12833;DHT22;6483;51.310;4.462;2022-08-19T04:21:36;16.70;99.90
12833;DHT22;6483;51.310;4.462;2022-08-19T04:24:06;16.70;99.90
12833;DHT22;6483;51.310;4.462;2022-08-19T04:26:36;16.70;99.90
12833;DHT22;6483;51.310;4.462;2022-08-19T04:29:11;16.70;99.90
12833;DHT22;6483;51.310;4.462;2022-08-19T04:31:39;16.70;99.90
12833;DHT22;6483;51.310;4.462;2022-08-19T04:34:11;16.70;99.90
12833;DHT22;6483;51.310;4.462;2022-08-19T04:36:39;16.70;99.90
12833;DHT22;6483;51.310;4.462;2022-08-19T04:39:17;16.70;99.90
12833;DHT22;6483;51.310;4.462;2022-08-19T04:41:44;16.70;99.90
12833;DHT22;6483;51.310;4.462;2022-08-19T04:44:31;16.80;99.90
12833;DHT22;6483;51.310;4.462;2022-08-19T04:47:01;16.70;99.90
12833;DHT22;6483;51.310;4.462;2022-08-19T04:49:30;16.70;99.90
12833;DHT22;6483;51.310;4.462;2022-08-19T04:51:57;16.60;99.90
12833;DHT22;6483;51.310;4.462;2022-08-19T04:54:28;16.70;99.90
12833;DHT22;6483;51.310;4.462;2022-08-19T04:56:54;16.70;99.90
12833;DHT22;6483;51.310;4.462;2022-08-19T04:59:21;16.60;99.90
12833;DHT22;6483;51.310;4.462;2022-08-19T05:01:48;16.60;99.90
12833;DHT22;6483;51.310;4.462;2022-08-19T05:04:23;16.50;99.90
12833;DHT22;6483;51.310;4.462;2022-08-19T05:06:49;16.60;99.90
12833;DHT22;6483;51.310;4.462;2022-08-19T05:09:16;16.60;99.90
12833;DHT22;6483;51.310;4.462;2022-08-19T05:11:43;16.60;99.90
12833;DHT22;6483;51.310;4.462;2022-08-19T05:14:11;16.50;99.90
12833;DHT22;6483;51.310;4.462;2022-08-19T05:16:38;16.50;99.90
12833;DHT22;6483;51.310;4.462;2022-08-19T05:19:07;16.50;99.90
12833;DHT22;6483;51.310;4.462;2022-08-19T05:21:52;16.60;99.90
12833;DHT22;6483;51.310;4.462;2022-08-19T05:24:52;16.50;99.90
12833;DHT22;6483;51.310;4.462;2022-08-19T05:27:18;16.60;99.90
12833;DHT22;6483;51.310;4.462;2022-08-19T05:29:46;16.60;99.90
12833;DHT22;6483;51.310;4.462;2022-08-19T05:32:15;16.60;99.90
12833;DHT22;6483;51.310;4.462;2022-08-19T05:34:41;16.70;99.90
12833;DHT22;6483;51.310;4.462;2022-08-19T05:37:08;16.80;99.90
12833;DHT22;6483;51.310;4.462;2022-08-19T05:39:36;16.80;99.90
12833;DHT22;6483;51.310;4.462;2022-08-19T05:42:07;16.80;99.90
12833;DHT22;6483;51.310;4.462;2022-08-19T05:44:37;16.80;99.90
12833;DHT22;6483;51.310;4.462;2022-08-19T05:47:06;16.90;99.90
12833;DHT22;6483;51.310;4.462;2022-08-19T05:49:33;17.00;99.90
12833;DHT22;6483;51.310;4.462;2022-08-19T05:52:02;17.00;99.90
12833;DHT22;6483;51.310;4.462;2022-08-19T05:54:32;17.00;99.90
12833;DHT22;6483;51.310;4.462;2022-08-19T05:57:00;17.10;99.90
12833;DHT22;6483;51.310;4.462;2022-08-19T05:59:34;17.20;99.90
12833;DHT22;6483;51.310;4.462;2022-08-19T06:02:07;17.20;99.90
12833;DHT22;6483;51.310;4.462;2022-08-19T06:04:33;17.40;99.90
12833;DHT22;6483;51.310;4.462;2022-08-19T06:06:58;17.40;99.90
12833;DHT22;6483;51.310;4.462;2022-08-19T06:09:26;17.60;99.90
12833;DHT22;6483;51.310;4.462;2022-08-19T06:11:56;17.80;99.90
12833;DHT22;6483;51.310;4.462;2022-08-19T06:14:43;18.00;99.90
12833;DHT22;6483;51.310;4.462;2022-08-19T06:17:08;18.20;99.90
12833;DHT22;6483;51.310;4.462;2022-08-19T06:19:34;18.30;99.90
12833;DHT22;6483;51.310;4.462;2022-08-19T06:22:06;18.40;99.90
12833;DHT22;6483;51.310;4.462;2022-08-19T06:24:32;18.50;99.90
12833;DHT22;6483;51.310;4.462;2022-08-19T06:26:58;18.70;99.90
12833;DHT22;6483;51.310;4.462;2022-08-19T06:29:26;18.70;99.90
12833;DHT22;6483;51.310;4.462;2022-08-19T06:31:54;18.60;99.90
12833;DHT22;6483;51.310;4.462;2022-08-19T06:34:21;18.70;99.90
12833;DHT22;6483;51.310;4.462;2022-08-19T06:36:49;18.80;99.90
12833;DHT22;6483;51.310;4.462;2022-08-19T06:39:24;18.80;99.90
12833;DHT22;6483;51.310;4.462;2022-08-19T06:41:52;18.80;99.90
12833;DHT22;6483;51.310;4.462;2022-08-19T06:44:20;18.80;99.90
12833;DHT22;6483;51.310;4.462;2022-08-19T06:46:46;18.80;99.90
12833;DHT22;6483;51.310;4.462;2022-08-19T06:49:12;18.90;99.90
12833;DHT22;6483;51.310;4.462;2022-08-19T06:51:46;19.00;99.90
12833;DHT22;6483;51.310;4.462;2022-08-19T06:54:16;19.10;99.90
12833;DHT22;6483;51.310;4.462;2022-08-19T06:56:43;19.20;99.90
12833;DHT22;6483;51.310;4.462;2022-08-19T06:59:13;19.40;99.90
12833;DHT22;6483;51.310;4.462;2022-08-19T07:01:51;19.50;99.90
12833;DHT22;6483;51.310;4.462;2022-08-19T07:04:28;19.60;99.90
12833;DHT22;6483;51.310;4.462;2022-08-19T07:06:59;19.70;99.90
12833;DHT22;6483;51.310;4.462;2022-08-19T07:09:25;19.80;99.90
12833;DHT22;6483;51.310;4.462;2022-08-19T07:11:53;20.10;99.90
12833;DHT22;6483;51.310;4.462;2022-08-19T07:14:22;20.00;99.90
12833;DHT22;6483;51.310;4.462;2022-08-19T07:16:49;20.20;99.90
12833;DHT22;6483;51.310;4.462;2022-08-19T07:19:18;20.30;99.90
12833;DHT22;6483;51.310;4.462;2022-08-19T07:21:43;20.40;99.90
12833;DHT22;6483;51.310;4.462;2022-08-19T07:24:09;20.60;99.90
12833;DHT22;6483;51.310;4.462;2022-08-19T07:26:39;20.80;99.90
12833;DHT22;6483;51.310;4.462;2022-08-19T07:29:06;20.90;99.90
12833;DHT22;6483;51.310;4.462;2022-08-19T07:31:31;20.70;99.90
12833;DHT22;6483;51.310;4.462;2022-08-19T07:34:02;20.50;99.90
12833;DHT22;6483;51.310;4.462;2022-08-19T07:36:29;20.40;99.90
12833;DHT22;6483;51.310;4.462;2022-08-19T07:38:59;20.30;99.90
12833;DHT22;6483;51.310;4.462;2022-08-19T07:41:27;20.10;99.90
12833;DHT22;6483;51.310;4.462;2022-08-19T07:44:00;20.30;99.90
12833;DHT22;6483;51.310;4.462;2022-08-19T07:46:32;20.50;99.90
12833;DHT22;6483;51.310;4.462;2022-08-19T07:48:59;20.70;99.90
12833;DHT22;6483;51.310;4.462;2022-08-19T07:51:26;20.80;99.90
12833;DHT22;6483;51.310;4.462;2022-08-19T07:53:52;21.00;99.90
12833;DHT22;6483;51.310;4.462;2022-08-19T07:56:19;21.30;99.90
12833;DHT22;6483;51.310;4.462;2022-08-19T07:58:48;21.50;99.90
12833;DHT22;6483;51.310;4.462;2022-08-19T08:01:17;21.30;99.90
12833;DHT22;6483;51.310;4.462;2022-08-19T08:03:44;21.20;99.90
12833;DHT22;6483;51.310;4.462;2022-08-19T08:06:28;21.10;99.90
12833;DHT22;6483;51.310;4.462;2022-08-19T08:09:13;20.80;99.90
12833;DHT22;6483;51.310;4.462;2022-08-19T08:11:58;20.80;99.90
12833;DHT22;6483;51.310;4.462;2022-08-19T08:14:39;20.90;99.90
12833;DHT22;6483;51.310;4.462;2022-08-19T08:17:06;20.80;99.90
12833;DHT22;6483;51.310;4.462;2022-08-19T08:19:32;20.80;99.90
12833;DHT22;6483;51.310;4.462;2022-08-19T08:22:00;20.90;99.90
12833;DHT22;6483;51.310;4.462;2022-08-19T08:24:30;20.80;99.90
12833;DHT22;6483;51.310;4.462;2022-08-19T08:27:01;20.80;99.90
12833;DHT22;6483;51.310;4.462;2022-08-19T08:29:30;21.00;99.90
12833;DHT22;6483;51.310;4.462;2022-08-19T08:31:57;20.80;99.90
12833;DHT22;6483;51.310;4.462;2022-08-19T08:34:26;20.80;99.90
12833;DHT22;6483;51.310;4.462;2022-08-19T08:36:55;20.70;99.90
12833;DHT22;6483;51.310;4.462;2022-08-19T08:39:21;20.80;99.90
12833;DHT22;6483;51.310;4.462;2022-08-19T08:41:56;20.70;99.90
12833;DHT22;6483;51.310;4.462;2022-08-19T08:44:31;20.80;99.90
12833;DHT22;6483;51.310;4.462;2022-08-19T08:47:09;21.00;99.90
12833;DHT22;6483;51.310;4.462;2022-08-19T08:49:48;21.50;99.90
12833;DHT22;6483;51.310;4.462;2022-08-19T08:52:26;21.80;99.90
12833;DHT22;6483;51.310;4.462;2022-08-19T08:54:57;21.80;99.90
12833;DHT22;6483;51.310;4.462;2022-08-19T08:57:26;21.80;99.90
12833;DHT22;6483;51.310;4.462;2022-08-19T08:59:57;21.60;99.90
12833;DHT22;6483;51.310;4.462;2022-08-19T09:02:26;21.40;99.90
12833;DHT22;6483;51.310;4.462;2022-08-19T09:04:54;21.50;99.90
12833;DHT22;6483;51.310;4.462;2022-08-19T09:07:50;21.40;99.90
12833;DHT22;6483;51.310;4.462;2022-08-19T09:16:08;21.50;99.90
12833;DHT22;6483;51.310;4.462;2022-08-19T09:18:43;21.40;99.90
12833;DHT22;6483;51.310;4.462;2022-08-19T09:21:10;21.30;99.90
12833;DHT22;6483;51.310;4.462;2022-08-19T09:23:36;21.20;99.90
12833;DHT22;6483;51.310;4.462;2022-08-19T09:26:17;21.10;99.90
12833;DHT22;6483;51.310;4.462;2022-08-19T09:28:44;21.10;99.90
12833;DHT22;6483;51.310;4.462;2022-08-19T09:31:11;21.10;99.90
12833;DHT22;6483;51.310;4.462;2022-08-19T09:33:38;21.20;99.90
12833;DHT22;6483;51.310;4.462;2022-08-19T09:36:25;21.10;99.90
12833;DHT22;6483;51.310;4.462;2022-08-19T09:38:55;20.90;99.90
12833;DHT22;6483;51.310;4.462;2022-08-19T09:41:23;20.90;99.90
12833;DHT22;6483;51.310;4.462;2022-08-19T09:43:54;20.80;99.90
12833;DHT22;6483;51.310;4.462;2022-08-19T09:46:25;20.80;99.90
12833;DHT22;6483;51.310;4.462;2022-08-19T09:48:52;20.80;99.90
12833;DHT22;6483;51.310;4.462;2022-08-19T09:51:24;20.70;99.90
12833;DHT22;6483;51.310;4.462;2022-08-19T09:53:58;20.50;99.90
12833;DHT22;6483;51.310;4.462;2022-08-19T09:56:24;20.30;99.90
12833;DHT22;6483;51.310;4.462;2022-08-19T09:58:52;20.20;99.90
12833;DHT22;6483;51.310;4.462;2022-08-19T10:01:24;20.10;99.90
12833;DHT22;6483;51.310;4.462;2022-08-19T10:03:52;19.90;99.90
12833;DHT22;6483;51.310;4.462;2022-08-19T10:06:23;19.90;99.90
12833;DHT22;6483;51.310;4.462;2022-08-19T10:08:51;19.90;99.90
12833;DHT22;6483;51.310;4.462;2022-08-19T10:11:18;20.00;99.90
12833;DHT22;6483;51.310;4.462;2022-08-19T10:13:47;20.00;99.90
12833;DHT22;6483;51.310;4.462;2022-08-19T10:16:20;20.00;99.90
12833;DHT22;6483;51.310;4.462;2022-08-19T10:18:49;20.00;99.90
12833;DHT22;6483;51.310;4.462;2022-08-19T10:21:21;20.00;99.90
12833;DHT22;6483;51.310;4.462;2022-08-19T10:23:49;20.00;99.90
12833;DHT22;6483;51.310;4.462;2022-08-19T10:26:19;20.00;99.90
12833;DHT22;6483;51.310;4.462;2022-08-19T10:28:49;20.10;99.90
12833;DHT22;6483;51.310;4.462;2022-08-19T10:31:21;20.10;99.90
12833;DHT22;6483;51.310;4.462;2022-08-19T10:33:52;20.20;99.90
12833;DHT22;6483;51.310;4.462;2022-08-19T10:36:33;20.40;99.90
12833;DHT22;6483;51.310;4.462;2022-08-19T10:39:04;20.50;99.90
12833;DHT22;6483;51.310;4.462;2022-08-19T10:41:33;20.40;99.90
12833;DHT22;6483;51.310;4.462;2022-08-19T10:44:02;20.30;99.90
12833;DHT22;6483;51.310;4.462;2022-08-19T10:46:32;20.30;99.90
12833;DHT22;6483;51.310;4.462;2022-08-19T10:49:03;20.20;99.90
12833;DHT22;6483;51.310;4.462;2022-08-19T10:51:29;20.30;99.90
12833;DHT22;6483;51.310;4.462;2022-08-19T10:54:14;20.60;99.90
12833;DHT22;6483;51.310;4.462;2022-08-19T10:56:40;20.70;99.90
12833;DHT22;6483;51.310;4.462;2022-08-19T10:59:22;21.10;99.90
12833;DHT22;6483;51.310;4.462;2022-08-19T11:01:49;21.40;99.90
12833;DHT22;6483;51.310;4.462;2022-08-19T11:04:16;23.40;99.90
12833;DHT22;6483;51.310;4.462;2022-08-19T11:06:44;21.40;99.90
12833;DHT22;6483;51.310;4.462;2022-08-19T11:09:24;21.40;99.90
12833;DHT22;6483;51.310;4.462;2022-08-19T11:11:51;21.40;99.90
12833;DHT22;6483;51.310;4.462;2022-08-19T11:14:19;21.50;99.90
12833;DHT22;6483;51.310;4.462;2022-08-19T11:16:50;21.50;99.90
12833;DHT22;6483;51.310;4.462;2022-08-19T11:19:18;21.50;99.90
12833;DHT22;6483;51.310;4.462;2022-08-19T11:21:48;21.50;99.90
12833;DHT22;6483;51.310;4.462;2022-08-19T11:24:20;21.30;99.90
12833;DHT22;6483;51.310;4.462;2022-08-19T11:26:47;21.40;99.90
12833;DHT22;6483;51.310;4.462;2022-08-19T11:29:20;21.60;99.90
12833;DHT22;6483;51.310;4.462;2022-08-19T11:31:49;21.60;99.90
12833;DHT22;6483;51.310;4.462;2022-08-19T11:34:17;21.80;99.90
12833;DHT22;6483;51.310;4.462;2022-08-19T11:36:45;21.90;99.90
12833;DHT22;6483;51.310;4.462;2022-08-19T11:39:14;22.10;99.90
12833;DHT22;6483;51.310;4.462;2022-08-19T11:41:42;22.20;99.90
12833;DHT22;6483;51.310;4.462;2022-08-19T11:44:14;22.10;99.90
12833;DHT22;6483;51.310;4.462;2022-08-19T11:46:41;21.90;99.90
12833;DHT22;6483;51.310;4.462;2022-08-19T11:49:15;22.10;99.90
12833;DHT22;6483;51.310;4.462;2022-08-19T11:51:44;22.70;99.90
12833;DHT22;6483;51.310;4.462;2022-08-19T11:54:13;23.30;99.90
12833;DHT22;6483;51.310;4.462;2022-08-19T11:56:48;24.10;99.90
12833;DHT22;6483;51.310;4.462;2022-08-19T11:59:14;24.90;99.90
12833;DHT22;6483;51.310;4.462;2022-08-19T12:01:41;25.70;99.90
12833;DHT22;6483;51.310;4.462;2022-08-19T12:04:08;26.30;99.90
12833;DHT22;6483;51.310;4.462;2022-08-19T12:06:33;26.50;99.90
12833;DHT22;6483;51.310;4.462;2022-08-19T12:09:03;26.30;99.90
12833;DHT22;6483;51.310;4.462;2022-08-19T12:11:30;26.30;99.90
12833;DHT22;6483;51.310;4.462;2022-08-19T12:13:55;26.40;99.90
12833;DHT22;6483;51.310;4.462;2022-08-19T12:16:23;26.70;99.90
12833;DHT22;6483;51.310;4.462;2022-08-19T12:18:50;28.70;99.90
12833;DHT22;6483;51.310;4.462;2022-08-19T12:21:27;29.20;99.90
12833;DHT22;6483;51.310;4.462;2022-08-19T12:23:57;28.70;99.90
12833;DHT22;6483;51.310;4.462;2022-08-19T12:26:24;28.50;99.90
12833;DHT22;6483;51.310;4.462;2022-08-19T12:28:50;28.30;99.90
12833;DHT22;6483;51.310;4.462;2022-08-19T12:31:16;28.30;99.90
12833;DHT22;6483;51.310;4.462;2022-08-19T12:33:43;27.90;99.90
12833;DHT22;6483;51.310;4.462;2022-08-19T12:36:14;28.00;99.90
12833;DHT22;6483;51.310;4.462;2022-08-19T12:38:40;27.60;99.90
12833;DHT22;6483;51.310;4.462;2022-08-19T12:41:09;28.10;99.90
12833;DHT22;6483;51.310;4.462;2022-08-19T12:43:36;29.60;99.90
12833;DHT22;6483;51.310;4.462;2022-08-19T12:46:06;29.50;99.90
12833;DHT22;6483;51.310;4.462;2022-08-19T12:48:33;28.40;99.90
12833;DHT22;6483;51.310;4.462;2022-08-19T12:50:58;27.90;99.90
12833;DHT22;6483;51.310;4.462;2022-08-19T12:53:24;27.90;99.90
12833;DHT22;6483;51.310;4.462;2022-08-19T12:55:59;27.30;99.90
12833;DHT22;6483;51.310;4.462;2022-08-19T12:58:25;27.10;99.90
12833;DHT22;6483;51.310;4.462;2022-08-19T13:00:51;26.90;99.90
12833;DHT22;6483;51.310;4.462;2022-08-19T13:03:18;26.70;99.90
12833;DHT22;6483;51.310;4.462;2022-08-19T13:05:44;26.10;99.90
12833;DHT22;6483;51.310;4.462;2022-08-19T13:08:12;25.90;99.90
12833;DHT22;6483;51.310;4.462;2022-08-19T13:10:41;25.90;99.90
12833;DHT22;6483;51.310;4.462;2022-08-19T13:13:09;25.80;99.90
12833;DHT22;6483;51.310;4.462;2022-08-19T13:15:39;25.90;99.90
12833;DHT22;6483;51.310;4.462;2022-08-19T13:18:06;26.00;99.90
12833;DHT22;6483;51.310;4.462;2022-08-19T13:20:32;26.30;99.90
12833;DHT22;6483;51.310;4.462;2022-08-19T13:22:58;26.40;99.90
12833;DHT22;6483;51.310;4.462;2022-08-19T13:25:24;26.60;99.90
12833;DHT22;6483;51.310;4.462;2022-08-19T13:27:51;26.70;99.90
12833;DHT22;6483;51.310;4.462;2022-08-19T13:30:18;27.10;99.90
12833;DHT22;6483;51.310;4.462;2022-08-19T13:33:03;27.80;99.90
12833;DHT22;6483;51.310;4.462;2022-08-19T13:36:00;30.10;99.90
12833;DHT22;6483;51.310;4.462;2022-08-19T13:38:29;31.00;99.90
12833;DHT22;6483;51.310;4.462;2022-08-19T13:40:55;30.50;99.90
12833;DHT22;6483;51.310;4.462;2022-08-19T13:43:22;29.50;99.90
12833;DHT22;6483;51.310;4.462;2022-08-19T13:45:53;28.60;99.90
12833;DHT22;6483;51.310;4.462;2022-08-19T13:48:21;28.10;99.90
12833;DHT22;6483;51.310;4.462;2022-08-19T13:50:47;27.70;99.90
12833;DHT22;6483;51.310;4.462;2022-08-19T13:53:13;27.50;99.90
12833;DHT22;6483;51.310;4.462;2022-08-19T13:55:41;27.50;99.90
12833;DHT22;6483;51.310;4.462;2022-08-19T13:58:08;28.30;99.90
12833;DHT22;6483;51.310;4.462;2022-08-19T14:00:37;28.90;99.90
12833;DHT22;6483;51.310;4.462;2022-08-19T14:03:04;29.20;99.90
12833;DHT22;6483;51.310;4.462;2022-08-19T14:05:31;29.00;99.90
12833;DHT22;6483;51.310;4.462;2022-08-19T14:07:57;28.60;99.90
12833;DHT22;6483;51.310;4.462;2022-08-19T14:10:24;28.90;99.90
12833;DHT22;6483;51.310;4.462;2022-08-19T14:12:56;28.80;99.90
12833;DHT22;6483;51.310;4.462;2022-08-19T14:15:27;28.20;99.90
12833;DHT22;6483;51.310;4.462;2022-08-19T14:17:53;27.80;99.90
12833;DHT22;6483;51.310;4.462;2022-08-19T14:20:20;27.20;99.90
12833;DHT22;6483;51.310;4.462;2022-08-19T14:22:48;26.80;99.90
12833;DHT22;6483;51.310;4.462;2022-08-19T14:25:21;26.20;99.90
12833;DHT22;6483;51.310;4.462;2022-08-19T14:27:48;25.80;99.90
12833;DHT22;6483;51.310;4.462;2022-08-19T14:30:16;23.00;99.90
12833;DHT22;6483;51.310;4.462;2022-08-19T14:32:42;25.00;99.90
12833;DHT22;6483;51.310;4.462;2022-08-19T14:35:13;24.70;99.90
12833;DHT22;6483;51.310;4.462;2022-08-19T14:37:40;24.60;99.90
12833;DHT22;6483;51.310;4.462;2022-08-19T14:40:07;24.30;99.90
12833;DHT22;6483;51.310;4.462;2022-08-19T14:42:37;24.10;99.90
12833;DHT22;6483;51.310;4.462;2022-08-19T14:45:06;23.90;99.90
12833;DHT22;6483;51.310;4.462;2022-08-19T14:47:32;23.60;99.90
12833;DHT22;6483;51.310;4.462;2022-08-19T14:49:58;23.00;99.90
12833;DHT22;6483;51.310;4.462;2022-08-19T14:52:24;22.30;99.90
12833;DHT22;6483;51.310;4.462;2022-08-19T14:54:50;21.70;99.90
12833;DHT22;6483;51.310;4.462;2022-08-19T14:57:16;21.30;99.90
12833;DHT22;6483;51.310;4.462;2022-08-19T14:59:43;21.00;99.90
12833;DHT22;6483;51.310;4.462;2022-08-19T15:02:10;20.80;99.90
12833;DHT22;6483;51.310;4.462;2022-08-19T15:04:36;20.70;99.90
12833;DHT22;6483;51.310;4.462;2022-08-19T15:07:02;20.50;99.90
12833;DHT22;6483;51.310;4.462;2022-08-19T15:09:30;20.40;99.90
12833;DHT22;6483;51.310;4.462;2022-08-19T15:11:56;20.30;99.90
12833;DHT22;6483;51.310;4.462;2022-08-19T15:14:27;20.30;99.90
12833;DHT22;6483;51.310;4.462;2022-08-19T15:17:01;20.30;99.90
12833;DHT22;6483;51.310;4.462;2022-08-19T15:19:31;20.40;99.90
12833;DHT22;6483;51.310;4.462;2022-08-19T15:21:58;20.40;99.90
12833;DHT22;6483;51.310;4.462;2022-08-19T15:24:26;20.60;99.90
12833;DHT22;6483;51.310;4.462;2022-08-19T15:26:55;20.70;99.90
12833;DHT22;6483;51.310;4.462;2022-08-19T15:29:27;20.80;99.90
12833;DHT22;6483;51.310;4.462;2022-08-19T15:31:53;20.80;99.90
12833;DHT22;6483;51.310;4.462;2022-08-19T15:34:24;20.80;99.90
12833;DHT22;6483;51.310;4.462;2022-08-19T15:36:51;20.80;99.90
12833;DHT22;6483;51.310;4.462;2022-08-19T15:39:24;20.80;99.90
12833;DHT22;6483;51.310;4.462;2022-08-19T15:41:52;21.00;99.90
12833;DHT22;6483;51.310;4.462;2022-08-19T15:44:19;21.10;99.90
12833;DHT22;6483;51.310;4.462;2022-08-19T15:46:47;21.10;99.90
12833;DHT22;6483;51.310;4.462;2022-08-19T15:49:16;21.40;99.90
12833;DHT22;6483;51.310;4.462;2022-08-19T15:51:44;21.70;99.90
12833;DHT22;6483;51.310;4.462;2022-08-19T15:54:14;22.10;99.90
12833;DHT22;6483;51.310;4.462;2022-08-19T15:56:40;22.10;99.90
12833;DHT22;6483;51.310;4.462;2022-08-19T15:59:28;22.10;99.90
12833;DHT22;6483;51.310;4.462;2022-08-19T16:02:12;22.10;99.90
12833;DHT22;6483;51.310;4.462;2022-08-19T16:05:00;22.10;99.90
12833;DHT22;6483;51.310;4.462;2022-08-19T16:07:47;22.00;99.90
12833;DHT22;6483;51.310;4.462;2022-08-19T16:10:13;22.00;99.90